Latest Weather Observations for Darwin Harbour

IDD60801

Issued at 10:31 pm CST Saturday 25 March 2017 (issued every 30 minutes, with the page automatically refreshed every 10 minutes)

About weather observations | Map of weather stations | Latest weather observations for NT | Other Formats
Station Details ID: 014072 Name: DARWIN NTC AWS Lat: -12.47 Lon: 130.85 Height: 0.0 m
Data from the previous 72 hours. | See also: Recent months for locations in Northern Territory
Date/Time
CST
Temp
°C
App
Temp
°C
Dew
Point
°C
Rel
Hum
%
Delta-T
°C
Wind Press
QNH
hPa
Press
MSL
hPa
Rain since
9am
mm
Dir  Spd
km/h
Gust
km/h
Spd
kts
Gust
kts
25/10:00pm - - - - - ENE 7 13 4 7 1008.0 1007.9 -
25/09:30pm - - - - - ENE 4 7 2 4 1007.9 1007.8 -
25/09:00pm - - - - - NE 4 9 2 5 1007.4 1007.3 -
25/08:30pm - - - - - ENE 6 11 3 6 1007.1 1007.0 -
25/08:00pm - - - - - NE 4 11 2 6 1006.7 1006.6 -
25/07:30pm - - - - - NW 4 9 2 5 1006.3 1006.2 -
25/07:00pm - - - - - NW 6 9 3 5 1005.7 1005.6 -
25/06:30pm - - - - - NW 7 13 4 7 1005.3 1005.2 -
25/06:00pm - - - - - WNW 6 9 3 5 1005.2 1005.1 -
25/05:30pm - - - - - NNW 2 7 1 4 1005.1 1005.0 -
25/05:00pm - - - - - N 2 6 1 3 1004.9 1004.8 -
25/04:30pm - - - - - WNW 6 9 3 5 1005.0 1004.9 -
25/04:00pm - - - - - WNW 7 13 4 7 1005.2 1005.1 -
25/03:30pm - - - - - WNW 4 11 2 6 1005.4 1005.3 -
25/03:00pm - - - - - NNW 4 7 2 4 1005.5 1005.4 -
25/02:30pm - - - - - W 2 4 1 2 1005.6 1005.5 -
25/02:00pm - - - - - W 7 17 4 9 1006.2 1006.1 -
25/01:30pm - - - - - ENE 4 9 2 5 1006.1 1006.0 -
25/01:00pm - - - - - WNW 6 20 3 11 1007.3 1007.2 -
25/12:30pm - - - - - W 9 19 5 10 1007.4 1007.3 -
25/12:00pm - - - - - WNW 7 17 4 9 1007.7 1007.6 -
25/11:30am - - - - - WNW 7 15 4 8 1008.0 1007.9 -
25/11:00am - - - - - WNW 2 6 1 3 1008.2 1008.1 -
25/10:30am - - - - - WSW 2 4 1 2 1008.2 1008.1 -
25/10:00am - - - - - ENE 6 9 3 5 1008.0 1007.9 -
25/09:30am - - - - - E 11 19 6 10 1007.8 1007.7 -
25/09:00am - - - - - ENE 13 17 7 9 1007.5 1007.4 -
25/08:30am - - - - - ENE 11 15 6 8 1007.1 1007.0 -
25/08:00am - - - - - E 15 19 8 10 1006.4 1006.3 -
25/07:30am - - - - - ENE 15 20 8 11 1006.1 1006.0 -
25/07:00am - - - - - ENE 15 20 8 11 1006.3 1006.2 -
25/06:30am - - - - - E 15 20 8 11 1006.0 1005.9 -
25/06:00am - - - - - ENE 9 17 5 9 1005.9 1005.8 -
25/05:30am - - - - - ENE 11 20 6 11 1005.6 1005.5 -
25/05:00am - - - - - ENE 17 26 9 14 1005.1 1005.0 -
25/04:30am - - - - - ENE 35 54 19 29 1005.5 1005.4 -
25/04:26am - - - - - ENE 30 54 16 29 1005.4 1005.3 -
25/04:00am - - - - - E 20 26 11 14 1005.4 1005.3 -
25/03:30am - - - - - ESE 17 22 9 12 1005.9 1005.8 -
25/03:00am - - - - - SE 13 17 7 9 1006.4 1006.3 -
25/02:30am - - - - - SE 7 13 4 7 1006.8 1006.7 -
25/02:00am - - - - - SE 11 19 6 10 1006.9 1006.8 -
25/01:30am - - - - - ESE 9 13 5 7 1007.1 1007.0 -
25/01:00am - - - - - ESE 13 19 7 10 1007.3 1007.2 -
25/12:30am - - - - - SE 17 22 9 12 1007.3 1007.2 -
25/12:00am - - - - - ESE 19 26 10 14 1007.6 1007.5 -
 
Date/Time
CST
Temp
°C
App
Temp
°C
Dew
Point
°C
Rel
Hum
%
Delta-T
°C
Wind Press
QNH
hPa
Press
MSL
hPa
Rain since
9am
mm
Dir  Spd
km/h
Gust
km/h
Spd
kts
Gust
kts
24/11:30pm - - - - - SSE 20 28 11 15 1008.0 1007.9 -
24/11:00pm - - - - - S 26 30 14 16 1008.1 1008.0 -
24/10:30pm - - - - - SSW 24 28 13 15 1008.1 1008.0 -
24/10:00pm - - - - - SSE 6 17 3 9 1008.1 1008.0 -
24/09:30pm - - - - - ENE 2 6 1 3 1007.5 1007.4 -
24/09:00pm - - - - - ENE 4 7 2 4 1007.1 1007.0 -
24/08:30pm - - - - - NE 4 9 2 5 1006.5 1006.4 -
24/08:00pm - - - - - NE 9 17 5 9 1006.0 1005.9 -
24/07:30pm - - - - - NE 13 24 7 13 1005.6 1005.5 -
24/07:00pm - - - - - NNE 4 9 2 5 1005.5 1005.4 -
24/06:30pm - - - - - NNW 6 11 3 6 1005.0 1004.9 -
24/06:00pm - - - - - N 9 13 5 7 1005.2 1005.1 -
24/05:30pm - - - - - N 7 11 4 6 1005.0 1004.9 -
24/05:00pm - - - - - ESE 9 13 5 7 1004.5 1004.4 -
24/04:30pm - - - - - ESE 7 11 4 6 1004.1 1004.0 -
24/04:00pm - - - - - ESE 6 9 3 5 1004.9 1004.8 -
24/03:30pm - - - - - SE 9 13 5 7 1005.1 1005.0 -
24/03:00pm - - - - - SE 20 44 11 24 1005.5 1005.4 -
24/02:55pm - - - - - SW 9 44 5 24 1005.5 1005.4 -
24/02:30pm - - - - - NNW 7 13 4 7 1005.4 1005.3 -
24/02:00pm - - - - - WNW 9 13 5 7 1005.4 1005.3 -
24/01:30pm - - - - - SW 6 11 3 6 1006.1 1006.0 -
24/01:00pm - - - - - SW 9 13 5 7 1006.8 1006.7 -
24/12:30pm - - - - - SSW 13 15 7 8 1007.2 1007.1 -
24/12:00pm - - - - - SSW 13 17 7 9 1007.8 1007.7 -
24/11:30am - - - - - S 9 13 5 7 1008.4 1008.3 -
24/11:00am - - - - - SE 9 13 5 7 1008.8 1008.7 -
24/10:30am - - - - - ESE 7 11 4 6 1009.1 1009.0 -
24/10:00am - - - - - ESE 13 15 7 8 1009.0 1008.9 -
24/09:30am - - - - - ESE 9 13 5 7 1009.0 1008.9 -
24/09:00am - - - - - SE 7 13 4 7 1009.0 1008.9 -
24/08:30am - - - - - SSE 11 17 6 9 1008.6 1008.5 -
24/08:00am - - - - - ESE 7 11 4 6 1008.2 1008.1 -
24/07:30am - - - - - ESE 13 15 7 8 1007.9 1007.8 -
24/07:00am - - - - - ESE 11 17 6 9 1007.6 1007.5 -
24/06:30am - - - - - ESE 13 17 7 9 1007.3 1007.2 -
24/06:00am - - - - - E 9 13 5 7 1007.2 1007.1 -
24/05:30am - - - - - E 7 13 4 7 1007.4 1007.3 -
24/05:00am - - - - - ESE 11 15 6 8 1007.1 1007.0 -
24/04:30am - - - - - SE 9 13 5 7 1006.9 1006.8 -
24/04:00am - - - - - S 7 11 4 6 1007.4 1007.3 -
24/03:30am - - - - - SSW 4 9 2 5 1007.6 1007.5 -
24/03:00am - - - - - SSE 9 15 5 8 1007.3 1007.2 -
24/02:30am - - - - - ENE 9 15 5 8 1007.2 1007.1 -
24/02:00am - - - - - ENE 9 15 5 8 1007.6 1007.5 -
24/01:30am - - - - - E 17 22 9 12 1007.4 1007.3 -
24/01:00am - - - - - E 13 22 7 12 1007.8 1007.7 -
24/12:30am - - - - - E 15 20 8 11 1008.0 1007.9 -
24/12:00am - - - - - E 11 15 6 8 1008.5 1008.4 -
 
Date/Time
CST
Temp
°C
App
Temp
°C
Dew
Point
°C
Rel
Hum
%
Delta-T
°C
Wind Press
QNH
hPa
Press
MSL
hPa
Rain since
9am
mm
Dir  Spd
km/h
Gust
km/h
Spd
kts
Gust
kts
23/11:30pm - - - - - SSE 15 20 8 11 1008.9 1008.8 -
23/11:00pm - - - - - SSE 15 20 8 11 1009.3 1009.2 -
23/10:30pm - - - - - SSE 24 30 13 16 1009.6 1009.5 -
23/10:00pm - - - - - SSE 17 24 9 13 1009.1 1009.0 -
23/09:30pm - - - - - SE 22 33 12 18 1009.3 1009.2 -
23/09:00pm - - - - - SSE 9 13 5 7 1008.5 1008.4 -
23/08:30pm - - - - - S 13 17 7 9 1008.2 1008.1 -
23/08:00pm - - - - - SSW 19 24 10 13 1008.0 1007.9 -
23/07:30pm - - - - - S 24 30 13 16 1007.6 1007.5 -
23/07:00pm - - - - - SW 15 19 8 10 1007.0 1006.9 -
23/06:30pm - - - - - SW 17 20 9 11 1006.3 1006.2 -
23/06:00pm - - - - - WSW 13 17 7 9 1006.1 1006.0 -
23/05:30pm - - - - - WSW 17 20 9 11 1006.3 1006.2 -
23/05:00pm - - - - - WSW 17 20 9 11 1006.0 1005.9 -
23/04:30pm - - - - - WSW 17 24 9 13 1005.9 1005.8 -
23/04:00pm - - - - - W 17 24 9 13 1006.0 1005.9 -
23/03:30pm - - - - - WNW 9 19 5 10 1006.0 1005.9 -
23/03:00pm - - - - - NW 9 19 5 10 1006.2 1006.1 -
23/02:30pm - - - - - WNW 11 17 6 9 1006.6 1006.5 -
23/02:00pm - - - - - WNW 11 19 6 10 1006.9 1006.8 -
23/01:30pm - - - - - WNW 15 19 8 10 1007.4 1007.3 -
23/01:00pm - - - - - W 11 17 6 9 1008.0 1007.9 -
23/12:30pm - - - - - W 9 11 5 6 1008.5 1008.4 -
23/12:00pm - - - - - W 7 11 4 6 1009.2 1009.1 -
23/11:30am - - - - - SW 2 6 1 3 1009.5 1009.4 -
23/11:00am - - - - - WNW 7 11 4 6 1009.7 1009.6 -
23/10:30am - - - - - NW 11 20 6 11 1010.2 1010.1 -
23/10:00am - - - - - NW 13 20 7 11 1010.4 1010.3 -
23/09:30am - - - - - ENE 6 11 3 6 1010.1 1010.0 -
23/09:00am - - - - - E 7 13 4 7 1009.9 1009.8 -
23/08:30am - - - - - E 7 11 4 6 1009.3 1009.2 -
23/08:00am - - - - - ENE 6 7 3 4 1008.8 1008.7 -
23/07:30am - - - - - NNE 2 6 1 3 1008.6 1008.5 -
23/07:00am - - - - - NNE 2 6 1 3 1008.3 1008.2 -
23/06:30am - - - - - NE 4 9 2 5 1008.0 1007.9 -
23/06:00am - - - - - ENE 4 9 2 5 1007.6 1007.5 -
23/05:30am - - - - - ENE 6 9 3 5 1007.5 1007.4 -
23/05:00am - - - - - ENE 6 15 3 8 1007.4 1007.3 -
23/04:30am - - - - - ENE 7 11 4 6 1007.3 1007.2 -
23/04:00am - - - - - E 6 7 3 4 1007.3 1007.2 -
23/03:30am - - - - - ENE 4 7 2 4 1007.6 1007.5 -
23/03:00am - - - - - E 6 7 3 4 1007.6 1007.5 -
23/02:30am - - - - - ENE 6 7 3 4 1007.5 1007.4 -
23/02:00am - - - - - ESE 7 9 4 5 1007.9 1007.8 -
23/01:30am - - - - - SE 7 9 4 5 1008.3 1008.2 -
23/01:00am - - - - - SSW 6 7 3 4 1008.7 1008.6 -
23/12:30am - - - - - SW 7 9 4 5 1009.2 1009.1 -
23/12:00am - - - - - SW 6 9 3 5 1009.2 1009.1 -
 
Date/Time
CST
Temp
°C
App
Temp
°C
Dew
Point
°C
Rel
Hum
%
Delta-T
°C
Wind Press
QNH
hPa
Press
MSL
hPa
Rain since
9am
mm
Dir  Spd
km/h
Gust
km/h
Spd
kts
Gust
kts
22/11:30pm - - - - - WSW 4 7 2 4 1009.5 1009.4 -
22/11:00pm - - - - - SW 6 9 3 5 1009.5 1009.4 -

Other Formats:

Comma delimited format used in spreadsheet applications
http://www.bom.gov.au/fwo/IDD60801/IDD60801.95122.axf

JavaScript Object Notation format (JSON) in row-major order
http://www.bom.gov.au/fwo/IDD60801/IDD60801.95122.json